Time;durP1;ratioP1;P1;durP2;ratioP2;P2;SDS_P1;SDS_P2;PMS_P1;PMS_P2;Temp;Humidity;BMP_temperature;BMP_pressure;BME280_temperature;BME280_humidity;BME280_pressure;Samples;Min_cycle;Max_cycle;Signal;HPM_P1;HPM_P2
2021/10/15 00:02:04;;;;;;;29.40;17.67;;;;;;;11.48;75.80;101746.39;1684476;83;21128;-62
2021/10/15 00:04:30;;;;;;;34.53;16.77;;;;;;;11.58;75.56;101743.04;1688670;83;21103;-63
2021/10/15 00:06:57;;;;;;;26.00;14.63;;;;;;;11.61;74.83;101738.97;1706956;83;21750;-56
2021/10/15 00:09:24;;;;;;;40.43;16.82;;;;;;;11.63;74.10;101735.78;1707190;83;21528;-62
2021/10/15 00:11:53;;;;;;;29.35;16.42;;;;;;;11.65;74.00;101732.59;1686968;83;21286;-62
2021/10/15 00:14:20;;;;;;;31.77;15.53;;;;;;;11.67;74.02;101721.34;1663091;83;21613;-56
2021/10/15 00:16:47;;;;;;;27.80;15.75;;;;;;;11.71;73.73;101721.69;1646223;85;21165;-63
2021/10/15 00:19:14;;;;;;;39.83;16.07;;;;;;;11.68;73.15;101724.45;1640775;85;21118;-56
2021/10/15 00:21:42;;;;;;;25.55;15.08;;;;;;;11.68;73.26;101726.24;1645831;85;21052;-57
2021/10/15 00:24:10;;;;;;;30.35;16.35;;;;;;;11.69;72.97;101728.91;1640824;85;21518;-61
2021/10/15 00:26:37;;;;;;;29.80;14.87;;;;;;;11.65;72.74;101736.62;1652073;85;21030;-62
2021/10/15 00:29:08;;;;;;;33.40;15.43;;;;;;;11.61;72.83;101728.22;1658393;85;21264;-56
2021/10/15 00:31:35;;;;;;;34.43;15.72;;;;;;;11.61;73.09;101722.84;1641410;85;21017;-63
2021/10/15 00:34:02;;;;;;;52.55;16.42;;;;;;;11.59;73.25;101720.63;1652220;85;21070;-63
2021/10/15 00:36:29;;;;;;;39.78;17.52;;;;;;;11.58;73.53;101725.58;1659258;85;21133;-56
2021/10/15 00:38:56;;;;;;;47.90;16.75;;;;;;;11.57;73.91;101722.47;1655864;85;21093;-55
2021/10/15 00:41:23;;;;;;;30.43;15.70;;;;;;;11.57;74.24;101730.53;1662164;82;21132;-56
2021/10/15 00:44:11;;;;;;;29.90;15.15;;;;;;;11.53;74.71;101728.39;1671255;83;21056;-56
2021/10/15 00:46:40;;;;;;;25.43;14.75;;;;;;;11.43;74.91;101728.17;1695210;82;21527;-55
2021/10/15 00:49:12;;;;;;;29.55;14.60;;;;;;;11.35;74.64;101735.05;1715629;82;21121;-56
2021/10/15 00:51:42;;;;;;;35.92;16.97;;;;;;;11.29;74.71;101731.17;1707797;82;20985;-56
2021/10/15 00:54:12;;;;;;;44.03;17.45;;;;;;;11.30;75.16;101727.12;1697360;83;21127;-55
2021/10/15 00:56:39;;;;;;;43.50;19.37;;;;;;;11.27;76.01;101727.20;1660847;84;21578;-55
2021/10/15 00:59:06;;;;;;;49.75;18.55;;;;;;;11.27;76.78;101728.98;1654682;85;21590;-56
2021/10/15 01:01:33;;;;;;;38.28;18.90;;;;;;;11.24;77.28;101728.58;1685757;82;21858;-56
2021/10/15 01:04:01;;;;;;;33.63;17.48;;;;;;;11.18;78.23;101725.59;1696554;82;21478;-56
2021/10/15 01:06:29;;;;;;;35.10;17.85;;;;;;;11.16;78.54;101724.75;1700295;82;21029;-56
2021/10/15 01:08:58;;;;;;;35.52;17.42;;;;;;;11.14;78.49;101734.61;1698004;82;22309;-56
2021/10/15 01:11:25;;;;;;;32.67;17.05;;;;;;;11.15;78.57;101732.34;1699186;82;21122;-56
2021/10/15 01:13:52;;;;;;;46.15;17.92;;;;;;;11.17;78.50;101730.54;1700147;82;21092;-57
2021/10/15 01:16:30;;;;;;;37.90;17.23;;;;;;;11.17;78.62;101728.30;1707394;82;21743;-56
2021/10/15 01:19:06;;;;;;;31.40;17.02;;;;;;;11.17;78.34;101730.54;1656925;84;21085;-56
2021/10/15 01:25:53;;;;;;;;;;;;;;;11.15;78.24;101727.45;1630133;86;21117;-56
2021/10/15 01:28:22;;;;;;;37.13;16.55;;;;;;;11.14;78.02;101726.55;1638685;85;21837;-56
2021/10/15 01:30:49;;;;;;;28.92;16.00;;;;;;;11.13;77.83;101727.95;1631623;85;21057;-56
2021/10/15 01:33:16;;;;;;;28.00;15.88;;;;;;;11.09;77.27;101721.75;1651898;85;21085;-56
2021/10/15 01:35:43;;;;;;;35.15;16.45;;;;;;;11.07;77.46;101719.56;1701740;82;21098;-56
2021/10/15 01:38:10;;;;;;;35.63;16.52;;;;;;;11.07;77.68;101724.93;1706939;82;21086;-56
2021/10/15 01:40:37;;;;;;;26.80;16.00;;;;;;;11.10;77.60;101722.17;1698924;82;21132;-56
2021/10/15 01:43:04;;;;;;;39.83;17.10;;;;;;;11.10;77.54;101724.86;1711168;82;21502;-55
2021/10/15 01:45:32;;;;;;;39.88;16.45;;;;;;;11.09;77.59;101724.44;1701923;82;21061;-56
2021/10/15 01:47:59;;;;;;;42.70;17.10;;;;;;;11.07;77.56;101720.91;1700343;83;21126;-56
2021/10/15 01:50:27;;;;;;;32.95;16.10;;;;;;;11.03;77.57;101710.69;1703366;82;21069;-62
2021/10/15 01:52:54;;;;;;;35.83;15.88;;;;;;;11.02;77.71;101708.92;1714152;82;21697;-63
2021/10/15 01:55:21;;;;;;;43.80;16.55;;;;;;;11.04;77.67;101710.23;1697943;83;21036;-56
2021/10/15 01:57:48;;;;;;;29.18;15.98;;;;;;;11.03;77.62;101716.05;1706372;83;21069;-56
2021/10/15 02:00:15;;;;;;;27.00;16.25;;;;;;;11.02;77.81;101710.73;1701740;83;21124;-63
2021/10/15 02:02:43;;;;;;;28.85;16.65;;;;;;;11.05;77.82;101712.00;1709816;83;21048;-62
2021/10/15 02:05:14;;;;;;;25.35;15.68;;;;;;;11.05;77.88;101710.66;1686299;83;21136;-62
2021/10/15 02:07:41;;;;;;;25.85;15.75;;;;;;;11.08;77.87;101713.27;1705189;83;21044;-61
2021/10/15 02:10:10;;;;;;;28.42;14.18;;;;;;;11.07;77.83;101712.85;1696838;83;22250;-55
2021/10/15 02:12:37;;;;;;;24.23;14.50;;;;;;;11.06;77.96;101700.83;1691272;83;21058;-55
2021/10/15 02:15:05;;;;;;;34.43;17.15;;;;;;;11.04;78.14;101703.05;1701506;83;21115;-62
2021/10/15 02:17:33;;;;;;;35.65;16.85;;;;;;;11.03;78.53;101696.39;1702513;83;21557;-62
2021/10/15 02:20:01;;;;;;;32.75;16.65;;;;;;;11.04;79.02;101700.84;1687516;83;21743;-56
2021/10/15 02:22:29;;;;;;;30.15;17.27;;;;;;;11.05;79.25;101699.92;1703387;83;21033;-56
2021/10/15 02:24:56;;;;;;;35.88;16.37;;;;;;;11.03;79.66;101705.31;1691053;83;21127;-56
2021/10/15 02:27:23;;;;;;;27.67;16.23;;;;;;;11.03;79.80;101705.79;1695454;83;21064;-63
2021/10/15 02:29:51;;;;;;;34.00;16.23;;;;;;;11.02;80.14;101704.89;1692387;83;21081;-57
2021/10/15 02:32:18;;;;;;;27.20;15.50;;;;;;;11.05;80.43;101706.64;1685296;83;21058;-63
2021/10/15 02:34:45;;;;;;;29.57;15.53;;;;;;;11.04;80.34;101700.84;1688618;83;21116;-63
2021/10/15 02:37:12;;;;;;;33.23;17.12;;;;;;;11.03;80.59;101708.47;1694442;83;21072;-63
2021/10/15 02:39:39;;;;;;;27.45;15.70;;;;;;;11.01;80.72;101707.63;1716088;81;21531;-62
2021/10/15 02:42:06;;;;;;;33.95;16.15;;;;;;;10.99;80.99;101703.63;1722115;82;21728;-56
2021/10/15 02:44:34;;;;;;;39.73;16.93;;;;;;;11.00;81.27;101700.50;1701713;83;20993;-63
2021/10/15 02:47:02;;;;;;;40.40;16.70;;;;;;;11.04;81.48;101699.03;1718422;82;21096;-62
2021/10/15 02:49:30;;;;;;;35.75;16.67;;;;;;;11.12;81.59;101712.28;1712190;82;38571;-63
2021/10/15 02:51:57;;;;;;;40.23;16.62;;;;;;;11.21;81.52;101704.97;1716799;82;21069;-56
2021/10/15 02:54:24;;;;;;;35.63;15.03;;;;;;;11.25;81.53;101713.38;1675718;84;21599;-56
2021/10/15 02:56:51;;;;;;;38.67;16.45;;;;;;;11.30;81.57;101707.43;1675783;84;21106;-56
2021/10/15 02:59:18;;;;;;;40.58;16.77;;;;;;;11.30;81.67;101700.72;1712354;81;20984;-62
2021/10/15 03:01:45;;;;;;;45.50;16.05;;;;;;;11.32;82.15;101700.22;1712393;82;21091;-62
2021/10/15 03:04:14;;;;;;;38.35;15.03;;;;;;;11.33;82.04;101695.27;1716286;82;21107;-64
2021/10/15 03:06:41;;;;;;;40.85;15.23;;;;;;;11.32;82.18;101699.78;1724916;82;21134;-63
2021/10/15 03:09:08;;;;;;;32.80;16.02;;;;;;;11.30;82.40;101700.72;1700332;83;21068;-57
2021/10/15 03:11:35;;;;;;;38.40;16.60;;;;;;;11.28;82.38;101706.58;1681159;83;21074;-64
2021/10/15 03:14:02;;;;;;;38.75;15.80;;;;;;;11.25;82.73;101704.84;1693077;83;21149;-57
2021/10/15 03:16:29;;;;;;;40.90;15.25;;;;;;;11.25;82.91;101702.16;1703349;83;21057;-56
2021/10/15 03:18:56;;;;;;;44.03;16.02;;;;;;;11.23;83.01;101707.16;1703789;83;21849;-63
2021/10/15 03:21:23;;;;;;;36.15;16.25;;;;;;;11.20;83.42;101709.91;1701136;83;21051;-63
2021/10/15 03:23:52;;;;;;;39.15;15.28;;;;;;;11.17;83.55;101722.48;1694900;83;21519;-63
2021/10/15 03:26:19;;;;;;;40.75;16.62;;;;;;;11.14;83.76;101722.53;1726327;82;21465;-63
2021/10/15 03:28:47;;;;;;;29.27;16.35;;;;;;;11.14;83.95;101725.21;1710875;81;21024;-56
2021/10/15 03:31:14;;;;;;;29.15;14.90;;;;;;;11.14;83.98;101726.55;1709434;82;21591;-55
2021/10/15 03:33:41;;;;;;;26.02;15.68;;;;;;;11.15;84.13;101727.45;1714329;80;21423;-56
2021/10/15 03:36:09;;;;;;;26.42;16.35;;;;;;;11.12;83.90;101728.39;1711033;82;21144;-57
2021/10/15 03:38:36;;;;;;;21.60;14.38;;;;;;;11.07;84.08;101727.61;1704010;83;21024;-57
2021/10/15 03:41:03;;;;;;;28.57;15.43;;;;;;;11.09;84.16;101731.14;1724220;82;21064;-57
2021/10/15 03:43:30;;;;;;;27.40;16.10;;;;;;;11.09;84.08;101733.83;1705698;83;21290;-63
2021/10/15 03:45:57;;;;;;;25.90;15.98;;;;;;;11.07;84.16;101745.06;1702371;83;21732;-57
2021/10/15 03:48:24;;;;;;;29.77;16.77;;;;;;;11.03;84.15;101750.94;1697090;83;21673;-56
2021/10/15 03:50:53;;;;;;;28.85;14.98;;;;;;;11.00;84.27;101748.80;1712332;82;21386;-55
2021/10/15 03:53:20;;;;;;;33.23;15.18;;;;;;;10.97;84.32;101751.08;1684256;82;21056;-56
2021/10/15 03:55:47;;;;;;;24.07;15.15;;;;;;;10.95;84.24;101752.91;1695960;82;21894;-57
2021/10/15 03:58:14;;;;;;;28.62;15.08;;;;;;;10.90;84.31;101762.86;1690990;83;21100;-57
2021/10/15 04:00:41;;;;;;;27.50;15.63;;;;;;;10.88;84.43;101763.34;1690092;83;21036;-56
2021/10/15 04:03:08;;;;;;;29.50;15.40;;;;;;;10.87;84.51;101771.84;1719257;82;21549;-56
2021/10/15 04:05:35;;;;;;;33.05;15.53;;;;;;;10.89;84.61;101764.64;1711782;82;21132;-56
2021/10/15 04:08:02;;;;;;;27.37;15.08;;;;;;;10.94;84.46;101766.34;1726523;80;21788;-58
2021/10/15 04:10:29;;;;;;;23.73;15.50;;;;;;;10.94;84.33;101754.27;1713779;82;21087;-56
2021/10/15 04:12:56;;;;;;;34.55;15.65;;;;;;;10.91;84.17;101753.89;1698836;83;21044;-63
2021/10/15 04:15:23;;;;;;;25.62;15.08;;;;;;;10.88;84.21;101749.45;1699714;82;21102;-56
2021/10/15 04:17:51;;;;;;;26.42;15.70;;;;;;;10.85;84.50;101741.48;1696273;82;21539;-63
2021/10/15 04:20:18;;;;;;;25.25;13.62;;;;;;;10.86;84.64;101745.06;1701374;82;21082;-64
2021/10/15 04:22:45;;;;;;;39.15;15.25;;;;;;;10.84;84.67;101749.10;1707564;83;21585;-64
2021/10/15 04:25:14;;;;;;;36.42;15.08;;;;;;;10.81;84.85;101751.84;1711025;82;21541;-56
2021/10/15 04:27:42;;;;;;;45.15;15.90;;;;;;;10.79;85.04;101755.02;1714132;82;21162;-63
2021/10/15 04:30:10;;;;;;;36.95;14.85;;;;;;;10.79;85.07;101749.66;1673540;84;21097;-62
2021/10/15 04:32:38;;;;;;;43.63;13.88;;;;;;;10.76;85.13;101745.70;1697681;83;21484;-62
2021/10/15 04:35:07;;;;;;;37.42;14.35;;;;;;;10.76;85.45;101744.36;1690465;83;21088;-63
2021/10/15 04:37:36;;;;;;;35.83;15.83;;;;;;;10.78;85.51;101742.53;1677703;83;21080;-56
2021/10/15 04:40:04;;;;;;;37.13;15.98;;;;;;;10.80;85.62;101749.19;1680495;83;21054;-63
2021/10/15 04:42:31;;;;;;;33.25;15.68;;;;;;;10.81;85.80;101749.61;1699738;83;21080;-56
2021/10/15 04:44:58;;;;;;;34.63;15.72;;;;;;;10.83;85.80;101755.38;1699377;82;23247;-57
2021/10/15 04:47:25;;;;;;;30.43;15.32;;;;;;;10.80;85.96;101747.40;1697359;83;21155;-62
2021/10/15 04:49:52;;;;;;;34.70;15.58;;;;;;;10.80;86.25;101751.42;1679532;83;21145;-56
2021/10/15 04:52:19;;;;;;;42.95;15.65;;;;;;;10.82;86.29;101747.35;1683111;83;21079;-57
2021/10/15 04:54:46;;;;;;;36.90;13.80;;;;;;;10.82;86.53;101749.59;1683693;83;21461;-57
2021/10/15 04:57:14;;;;;;;29.80;13.90;;;;;;;10.83;86.83;101754.04;1687262;83;22553;-63
2021/10/15 04:59:42;;;;;;;26.42;13.60;;;;;;;10.85;87.11;101758.91;1702107;83;21072;-57
2021/10/15 05:02:09;;;;;;;26.80;13.03;;;;;;;10.91;87.65;101757.91;1685933;83;21048;-63
2021/10/15 05:04:39;;;;;;;27.25;14.50;;;;;;;11.00;87.58;101751.48;1681926;83;21044;-63
2021/10/15 05:07:06;;;;;;;30.75;14.33;;;;;;;11.03;87.58;101744.70;1678742;83;21094;-63
2021/10/15 05:09:36;;;;;;;27.32;14.15;;;;;;;11.05;87.60;101740.19;1670705;83;21997;-57
2021/10/15 05:12:06;;;;;;;30.15;14.38;;;;;;;11.10;87.64;101745.46;1702313;83;21024;-62
2021/10/15 05:14:35;;;;;;;29.85;14.87;;;;;;;11.09;87.81;101733.83;1695486;82;21108;-62
2021/10/15 05:17:02;;;;;;;28.35;13.35;;;;;;;11.04;88.01;101739.28;1686099;83;21111;-62
2021/10/15 05:19:30;;;;;;;25.50;14.33;;;;;;;11.08;88.32;101744.14;1700345;82;21608;-62
2021/10/15 05:21:57;;;;;;;25.17;14.05;;;;;;;11.15;88.45;101741.73;1694514;84;21802;-56
2021/10/15 05:24:24;;;;;;;31.27;14.83;;;;;;;11.24;88.62;101742.48;1690793;83;21090;-55
2021/10/15 05:26:53;;;;;;;26.48;14.65;;;;;;;11.35;88.36;101744.45;1703954;82;21076;-61
2021/10/15 05:29:20;;;;;;;31.62;14.55;;;;;;;11.44;88.16;101742.02;1705632;82;21100;-61
2021/10/15 05:31:47;;;;;;;28.52;13.75;;;;;;;11.54;87.98;101748.06;1700175;83;22221;-56
2021/10/15 05:34:14;;;;;;;30.35;14.18;;;;;;;11.62;87.58;101750.13;1696023;83;21940;-62
2021/10/15 05:36:41;;;;;;;34.30;14.58;;;;;;;11.67;87.37;101757.62;1696372;83;20965;-62
2021/10/15 05:39:08;;;;;;;37.00;13.75;;;;;;;11.73;86.94;101761.97;1710817;82;20996;-57
2021/10/15 05:41:36;;;;;;;29.92;12.75;;;;;;;11.77;86.36;101764.09;1718894;82;21430;-61
2021/10/15 05:44:03;;;;;;;29.85;14.18;;;;;;;11.81;85.34;101773.85;1665454;83;21136;-57
2021/10/15 05:46:31;;;;;;;34.03;16.25;;;;;;;11.87;85.64;101766.53;1684149;83;21122;-61
2021/10/15 05:48:58;;;;;;;32.60;15.68;;;;;;;11.96;85.61;101768.59;1680200;83;21032;-61
2021/10/15 05:51:27;;;;;;;33.75;15.10;;;;;;;12.04;85.57;101770.17;1654818;85;21055;-55
2021/10/15 05:53:57;;;;;;;41.68;15.68;;;;;;;12.15;85.09;101763.66;1632981;85;21787;-56
2021/10/15 05:59:08;;;;;;;26.50;16.27;;;;;;;12.18;84.54;101772.98;1672267;84;21570;-58
2021/10/15 06:01:36;;;;;;;34.45;16.82;;;;;;;12.19;84.18;101776.09;1684888;84;21737;-61
2021/10/15 06:14:41;;;;;;;36.33;16.48;;;;;;;12.04;85.37;101763.93;1674127;84;21371;-57
2021/10/15 06:17:11;;;;;;;34.85;17.00;;;;;;;12.12;85.05;101763.74;1682945;83;21012;-63
2021/10/15 06:22:15;;;;;;;56.33;16.27;;;;;;;12.15;84.67;101768.56;1636011;85;21535;-63
2021/10/15 06:24:43;;;;;;;44.88;17.57;;;;;;;12.22;84.43;101777.84;1674348;84;21588;-63
2021/10/15 06:27:11;;;;;;;41.20;17.52;;;;;;;12.24;84.30;101780.89;1681077;84;21120;-63
2021/10/15 06:29:38;;;;;;;36.80;15.70;;;;;;;12.27;84.41;101777.25;1671062;84;21113;-63
2021/10/15 06:32:08;;;;;;;35.88;16.25;;;;;;;12.34;84.35;101775.30;1666750;84;21694;-63
2021/10/15 06:34:35;;;;;;;38.53;17.05;;;;;;;12.39;84.28;101775.60;1674387;84;21056;-64
2021/10/15 06:37:02;;;;;;;22.93;12.53;;;;;;;12.46;84.16;101768.23;1668318;84;21669;-64
2021/10/15 06:39:29;;;;;;;13.08;8.78;;;;;;;12.48;82.10;101765.03;1666313;83;21104;-64
2021/10/15 06:41:56;;;;;;;12.07;7.37;;;;;;;12.53;81.60;101765.81;1678133;84;22173;-64
2021/10/15 06:44:23;;;;;;;12.82;7.00;;;;;;;12.68;79.44;101768.55;1673622;84;22347;-64
2021/10/15 06:46:53;;;;;;;13.18;6.83;;;;;;;12.79;77.65;101762.86;1677459;83;21028;-64
2021/10/15 06:49:20;;;;;;;11.70;7.72;;;;;;;12.87;76.74;101750.54;1690997;83;21450;-63
2021/10/15 06:51:47;;;;;;;10.90;7.45;;;;;;;12.98;76.60;101755.13;1707776;82;21145;-65
2021/10/15 06:54:15;;;;;;;12.15;7.03;;;;;;;13.09;75.13;101754.81;1695926;83;21113;-63
2021/10/15 06:56:42;;;;;;;12.13;7.22;;;;;;;13.16;75.22;101753.73;1689149;83;21675;-64
2021/10/15 06:59:09;;;;;;;12.78;7.08;;;;;;;13.29;74.29;101750.65;1694057;83;21135;-64
2021/10/15 07:01:36;;;;;;;12.15;6.75;;;;;;;13.38;73.61;101751.73;1689463;83;21858;-64
2021/10/15 07:04:04;;;;;;;15.45;7.58;;;;;;;13.48;72.70;101750.12;1699545;82;21085;-63
2021/10/15 07:06:32;;;;;;;15.40;6.75;;;;;;;13.58;71.82;101753.82;1693903;83;21089;-64
2021/10/15 07:09:00;;;;;;;10.68;6.60;;;;;;;13.67;71.50;101745.91;1705947;83;21064;-64
2021/10/15 07:11:27;;;;;;;10.32;6.35;;;;;;;13.80;70.58;101741.45;1688924;83;21641;-64
2021/10/15 07:13:54;;;;;;;9.00;6.37;;;;;;;13.87;69.35;101743.04;1679320;83;21089;-64
2021/10/15 07:16:22;;;;;;;8.95;5.80;;;;;;;13.91;69.13;101748.73;1687345;82;21080;-64
2021/10/15 07:18:49;;;;;;;17.67;7.10;;;;;;;13.98;68.23;101736.80;1672900;83;21068;-65
2021/10/15 07:21:16;;;;;;;14.03;6.10;;;;;;;14.01;68.17;101742.09;1692611;83;22365;-63
2021/10/15 07:23:43;;;;;;;9.43;5.70;;;;;;;14.03;68.53;101737.52;1707303;83;21486;-63
2021/10/15 07:26:10;;;;;;;8.18;5.60;;;;;;;14.12;68.75;101732.77;1697664;83;21084;-63
2021/10/15 07:28:37;;;;;;;8.13;5.65;;;;;;;14.21;68.75;101729.74;1697925;83;21580;-63
2021/10/15 07:31:04;;;;;;;14.65;5.85;;;;;;;14.32;67.51;101729.37;1683907;83;21146;-64
2021/10/15 07:33:31;;;;;;;20.57;6.37;;;;;;;14.36;65.50;101732.37;1689044;83;21115;-63
2021/10/15 07:35:58;;;;;;;20.75;6.72;;;;;;;14.33;65.77;101723.94;1688617;83;21037;-63
2021/10/15 07:38:26;;;;;;;9.73;5.85;;;;;;;14.36;66.26;101720.71;1672558;84;21845;-56
2021/10/15 07:40:53;;;;;;;9.80;5.50;;;;;;;14.45;65.22;101714.97;1677994;83;21063;-56
2021/10/15 07:43:20;;;;;;;9.25;6.03;;;;;;;14.51;65.04;101724.22;1690022;83;21071;-56
2021/10/15 07:45:47;;;;;;;12.28;5.37;;;;;;;14.59;64.25;101715.85;1685918;83;21073;-56
2021/10/15 07:48:14;;;;;;;6.95;5.30;;;;;;;14.65;62.80;101707.97;1679968;84;21770;-57
2021/10/15 07:50:41;;;;;;;15.20;5.83;;;;;;;14.61;63.11;101714.84;1676852;84;22017;-63
2021/10/15 07:53:08;;;;;;;8.03;5.42;;;;;;;14.61;63.45;101712.14;1680466;84;21080;-63
2021/10/15 07:55:35;;;;;;;14.58;5.97;;;;;;;14.63;63.90;101719.30;1675379;84;21092;-62
2021/10/15 07:58:04;;;;;;;9.85;5.65;;;;;;;14.69;63.30;101716.36;1685840;84;21132;-62
2021/10/15 08:00:32;;;;;;;7.90;5.47;;;;;;;14.70;63.64;101714.97;1656375;84;21046;-62
2021/10/15 08:02:58;;;;;;;13.58;5.58;;;;;;;14.71;63.33;101713.20;1670816;84;21144;-61
2021/10/15 08:05:25;;;;;;;15.40;5.70;;;;;;;14.76;62.93;101715.25;1661347;84;21518;-62
2021/10/15 08:07:53;;;;;;;12.75;5.83;;;;;;;14.82;63.17;101718.20;1678619;84;21606;-63
2021/10/15 08:10:20;;;;;;;11.38;6.53;;;;;;;14.89;63.19;101720.58;1687922;84;21115;-63
2021/10/15 08:12:47;;;;;;;12.85;5.90;;;;;;;15.00;62.78;101711.21;1679826;84;21434;-63
2021/10/15 08:15:15;;;;;;;13.25;5.85;;;;;;;15.09;61.36;101720.30;1669593;84;21137;-62
2021/10/15 08:17:44;;;;;;;12.43;6.53;;;;;;;15.16;60.77;101724.99;1665639;84;21110;-63
2021/10/15 08:20:13;;;;;;;18.32;5.37;;;;;;;15.24;60.56;101724.22;1666804;84;21052;-63
2021/10/15 08:22:40;;;;;;;16.00;6.00;;;;;;;15.33;60.58;101717.57;1677651;84;21013;-62
2021/10/15 08:25:08;;;;;;;13.00;5.40;;;;;;;15.46;60.61;101713.91;1672846;84;21720;-63
2021/10/15 08:27:36;;;;;;;10.13;5.10;;;;;;;15.58;60.45;101726.94;1667443;84;21505;-63
2021/10/15 08:30:05;;;;;;;16.73;5.37;;;;;;;15.65;59.19;101726.22;1680131;84;21216;-57
2021/10/15 08:32:32;;;;;;;10.70;4.83;;;;;;;15.64;58.54;101743.84;1676475;84;21061;-57
2021/10/15 08:34:59;;;;;;;11.12;5.00;;;;;;;15.61;58.77;101742.16;1653507;84;21139;-56
2021/10/15 08:37:26;;;;;;;12.80;4.80;;;;;;;15.66;58.61;101733.39;1691571;83;21326;-56
2021/10/15 08:39:53;;;;;;;20.05;5.25;;;;;;;15.69;58.31;101730.55;1659569;83;22390;-57
2021/10/15 08:42:20;;;;;;;15.03;4.95;;;;;;;15.60;57.41;101720.13;1660270;85;21093;-57
2021/10/15 08:44:47;;;;;;;12.30;5.58;;;;;;;15.51;57.31;101725.89;1657522;84;21098;-63
2021/10/15 08:47:15;;;;;;;9.50;4.85;;;;;;;15.40;57.03;101723.16;1682914;83;21632;-58
2021/10/15 08:49:43;;;;;;;10.98;6.20;;;;;;;15.36;58.04;101725.55;1684400;83;21139;-57
2021/10/15 08:52:12;;;;;;;8.90;5.05;;;;;;;15.36;58.35;101713.88;1692231;83;21530;-57
2021/10/15 08:54:43;;;;;;;8.25;5.37;;;;;;;15.37;58.12;101724.64;1669066;84;21066;-57
2021/10/15 08:57:08;;;;;;;14.80;5.90;;;;;;;15.34;57.68;101719.33;1656790;84;20990;-56
2021/10/15 08:59:40;;;;;;;7.55;4.83;;;;;;;15.32;57.49;101715.81;1665088;84;21053;-56
2021/10/15 09:02:19;;;;;;;7.50;5.22;;;;;;;15.38;57.85;101716.94;1680456;84;21119;-58
2021/10/15 09:04:54;;;;;;;7.15;4.72;;;;;;;15.44;57.58;101720.74;1666573;84;21535;-57
2021/10/15 09:07:24;;;;;;;8.05;5.20;;;;;;;15.44;57.89;101722.09;1669963;84;22160;-58
2021/10/15 09:10:18;;;;;;;8.63;4.87;;;;;;;15.46;58.29;101712.09;1662438;84;21169;-64
2021/10/15 09:12:56;;;;;;;16.27;5.65;;;;;;;15.41;58.02;101716.81;1664228;84;21507;-64
2021/10/15 09:15:17;;;;;;;7.08;5.00;;;;;;;15.40;58.21;101717.76;1644579;84;21090;-62
2021/10/15 09:17:50;;;;;;;11.53;5.03;;;;;;;15.36;58.44;101722.84;1650546;85;21597;-64
2021/10/15 09:20:30;;;;;;;8.88;4.78;;;;;;;15.40;58.74;101723.62;1683996;83;21098;-63
2021/10/15 09:22:57;;;;;;;6.47;4.60;;;;;;;15.46;57.71;101739.13;1682451;84;21154;-63
2021/10/15 09:25:33;;;;;;;6.42;4.53;;;;;;;15.37;57.55;101722.39;1678443;84;21097;-62
2021/10/15 09:28:00;;;;;;;6.28;4.70;;;;;;;15.32;58.12;101723.46;1666517;84;21115;-62
2021/10/15 09:30:28;;;;;;;7.58;4.87;;;;;;;15.29;58.54;101725.39;1680886;85;21557;-62
2021/10/15 09:32:58;;;;;;;6.20;4.78;;;;;;;15.33;59.12;101718.92;1691674;83;21274;-62
2021/10/15 09:35:31;;;;;;;8.45;5.00;;;;;;;15.42;58.92;101710.92;1686192;84;21446;-62
2021/10/15 09:38:05;;;;;;;7.03;4.78;;;;;;;15.47;58.95;101717.02;1688306;84;21092;-62
2021/10/15 09:40:45;;;;;;;8.18;4.83;;;;;;;15.51;58.91;101720.48;1676654;83;21078;-62
2021/10/15 09:43:13;;;;;;;6.75;4.45;;;;;;;15.43;58.42;101721.69;1680889;84;21470;-63
2021/10/15 09:45:46;;;;;;;8.60;5.35;;;;;;;15.39;58.37;101731.31;1682429;83;21057;-62
2021/10/15 09:48:36;;;;;;;7.45;5.03;;;;;;;15.37;58.87;101732.75;1689072;83;21077;-56
2021/10/15 09:51:19;;;;;;;6.75;5.15;;;;;;;15.37;59.72;101727.34;1688486;83;21178;-57
2021/10/15 09:54:11;;;;;;;10.13;6.10;;;;;;;15.43;59.20;101721.69;1686667;83;21024;-56
2021/10/15 09:56:45;;;;;;;7.42;5.72;;;;;;;15.35;59.96;101710.28;1695782;83;21131;-62
2021/10/15 09:59:13;;;;;;;7.50;5.60;;;;;;;15.27;61.38;101707.02;1698149;83;21480;-63
2021/10/15 10:01:41;;;;;;;6.95;5.58;;;;;;;15.22;61.04;101718.48;1689633;83;21108;-62
2021/10/15 10:04:09;;;;;;;9.45;6.78;;;;;;;15.21;61.36;101701.37;1686341;83;21038;-62
2021/10/15 10:06:37;;;;;;;9.00;6.58;;;;;;;15.20;61.49;101704.16;1684300;83;21139;-63
2021/10/15 10:09:05;;;;;;;11.78;6.17;;;;;;;15.15;60.85;101707.03;1671690;83;21788;-62
2021/10/15 10:11:33;;;;;;;10.25;5.40;;;;;;;15.15;60.91;101705.22;1694048;83;21052;-64
2021/10/15 10:14:00;;;;;;;9.28;5.80;;;;;;;15.17;61.07;101707.39;1681443;83;21144;-65
2021/10/15 10:16:30;;;;;;;7.03;5.17;;;;;;;15.18;61.09;101715.91;1685407;83;21119;-62
2021/10/15 10:19:01;;;;;;;10.78;5.37;;;;;;;15.20;60.58;101712.27;1684303;83;21073;-57
2021/10/15 10:21:33;;;;;;;11.12;5.37;;;;;;;15.22;60.76;101709.02;1672772;84;21117;-58
2021/10/15 10:24:07;;;;;;;11.28;5.58;;;;;;;15.29;60.41;101708.73;1680940;83;21095;-57
2021/10/15 10:26:48;;;;;;;17.75;5.97;;;;;;;15.36;59.81;101706.64;1703409;82;21078;-63
2021/10/15 10:29:15;;;;;;;18.25;5.03;;;;;;;15.42;59.94;101698.77;1680124;83;21178;-63
2021/10/15 10:31:42;;;;;;;22.80;6.55;;;;;;;15.46;59.83;101702.64;1700150;83;21263;-63
2021/10/15 10:34:14;;;;;;;13.32;5.58;;;;;;;15.45;60.19;101700.88;1681323;83;21132;-63
2021/10/15 10:36:41;;;;;;;27.07;5.90;;;;;;;15.50;60.44;101704.76;1682305;83;21377;-62
2021/10/15 10:39:26;;;;;;;17.27;5.53;;;;;;;15.56;60.36;101696.84;1688732;83;21402;-62
2021/10/15 10:42:13;;;;;;;11.10;5.42;;;;;;;15.58;60.36;101700.36;1695222;83;21653;-63
2021/10/15 10:44:57;;;;;;;15.30;5.42;;;;;;;15.53;59.85;101709.14;1678273;83;21510;-62
2021/10/15 10:47:26;;;;;;;20.75;5.22;;;;;;;15.35;60.51;101699.47;1681904;83;21142;-63
2021/10/15 10:50:06;;;;;;;10.43;5.85;;;;;;;15.26;61.26;101706.61;1663170;83;21060;-63
2021/10/15 10:52:49;;;;;;;22.07;6.22;;;;;;;15.20;61.58;101705.02;1677632;83;21084;-62
2021/10/15 10:55:35;;;;;;;10.43;5.90;;;;;;;15.11;61.79;101700.86;1675072;83;21104;-62
2021/10/15 10:58:25;;;;;;;19.85;5.87;;;;;;;15.08;62.00;101707.73;1674691;83;21095;-62
2021/10/15 11:00:52;;;;;;;12.70;6.40;;;;;;;15.03;62.37;101707.04;1691387;83;21123;-63
2021/10/15 11:03:33;;;;;;;8.55;5.83;;;;;;;15.06;62.65;101712.31;1702040;83;21598;-62
2021/10/15 11:06:00;;;;;;;9.38;6.05;;;;;;;15.03;62.61;101712.44;1687470;83;21101;-62
2021/10/15 11:08:31;;;;;;;9.48;6.42;;;;;;;14.96;62.90;101716.32;1683769;83;20993;-57
2021/10/15 11:11:24;;;;;;;12.75;6.22;;;;;;;14.94;63.06;101724.47;1692672;83;21542;-58
2021/10/15 11:13:51;;;;;;;13.95;6.92;;;;;;;14.86;63.54;101724.75;1672533;83;21371;-58
2021/10/15 11:16:24;;;;;;;13.48;6.78;;;;;;;14.84;63.97;101720.38;1698115;83;21554;-56
2021/10/15 11:18:52;;;;;;;12.47;6.72;;;;;;;14.74;63.94;101714.43;1702208;83;21156;-57
2021/10/15 11:21:22;;;;;;;12.65;7.10;;;;;;;14.68;64.34;101711.45;1700716;83;21609;-56
2021/10/15 11:23:49;;;;;;;12.25;6.40;;;;;;;14.68;64.62;101709.20;1699668;83;21489;-57
2021/10/15 11:26:16;;;;;;;10.28;6.83;;;;;;;14.67;64.93;101706.09;1696057;83;21687;-57
2021/10/15 11:28:44;;;;;;;10.10;6.62;;;;;;;14.69;65.07;101700.17;1706945;83;21017;-56
2021/10/15 11:31:12;;;;;;;7.90;6.50;;;;;;;14.69;64.50;101691.62;1697641;82;21494;-58
2021/10/15 11:33:39;;;;;;;9.55;6.85;;;;;;;14.70;64.64;101691.13;1713181;83;21101;-57
2021/10/15 11:36:07;;;;;;;7.65;6.00;;;;;;;14.72;64.95;101682.56;1702000;83;21702;-58
2021/10/15 11:38:34;;;;;;;11.73;7.22;;;;;;;14.70;64.41;101674.94;1686958;83;21476;-57
2021/10/15 11:41:05;;;;;;;10.95;6.58;;;;;;;14.69;64.87;101677.23;1692183;84;21117;-57
2021/10/15 11:43:37;;;;;;;8.80;6.72;;;;;;;14.61;64.64;101671.66;1695143;83;21502;-57